sensor_id;sensor_type;location;lat;lon;timestamp;P1;durP1;ratioP1;P2;durP2;ratioP2
7255;SDS011;3669;49.200;9.242;2024-02-23T00:00:59;1.75;;;1.65;;
7255;SDS011;3669;49.200;9.242;2024-02-23T00:03:26;1.73;;;1.70;;
7255;SDS011;3669;49.200;9.242;2024-02-23T00:05:54;2.10;;;1.92;;
7255;SDS011;3669;49.200;9.242;2024-02-23T00:08:21;1.98;;;1.88;;
7255;SDS011;3669;49.200;9.242;2024-02-23T00:10:48;2.22;;;2.10;;
7255;SDS011;3669;49.200;9.242;2024-02-23T00:13:15;2.00;;;1.90;;
7255;SDS011;3669;49.200;9.242;2024-02-23T00:15:42;2.10;;;2.00;;
7255;SDS011;3669;49.200;9.242;2024-02-23T00:18:09;1.92;;;1.75;;
7255;SDS011;3669;49.200;9.242;2024-02-23T00:20:38;2.20;;;2.00;;
7255;SDS011;3669;49.200;9.242;2024-02-23T00:23:05;2.35;;;2.05;;
7255;SDS011;3669;49.200;9.242;2024-02-23T00:25:32;2.10;;;2.00;;
7255;SDS011;3669;49.200;9.242;2024-02-23T00:27:59;2.30;;;2.20;;
7255;SDS011;3669;49.200;9.242;2024-02-23T00:30:26;2.75;;;2.08;;
7255;SDS011;3669;49.200;9.242;2024-02-23T00:32:54;3.60;;;2.88;;
7255;SDS011;3669;49.200;9.242;2024-02-23T00:35:21;2.47;;;2.25;;
7255;SDS011;3669;49.200;9.242;2024-02-23T00:37:48;2.63;;;2.42;;
7255;SDS011;3669;49.200;9.242;2024-02-23T00:40:16;2.58;;;2.38;;
7255;SDS011;3669;49.200;9.242;2024-02-23T00:42:43;3.72;;;2.30;;
7255;SDS011;3669;49.200;9.242;2024-02-23T00:45:10;2.47;;;2.28;;
7255;SDS011;3669;49.200;9.242;2024-02-23T00:47:37;2.55;;;2.35;;
7255;SDS011;3669;49.200;9.242;2024-02-23T00:50:04;2.47;;;2.28;;
7255;SDS011;3669;49.200;9.242;2024-02-23T00:52:31;1.90;;;1.80;;
7255;SDS011;3669;49.200;9.242;2024-02-23T00:54:58;2.60;;;2.10;;
7255;SDS011;3669;49.200;9.242;2024-02-23T00:57:25;3.10;;;2.42;;
7255;SDS011;3669;49.200;9.242;2024-02-23T00:59:56;2.17;;;2.08;;
7255;SDS011;3669;49.200;9.242;2024-02-23T01:02:23;2.35;;;2.15;;
7255;SDS011;3669;49.200;9.242;2024-02-23T01:04:51;2.45;;;2.22;;
7255;SDS011;3669;49.200;9.242;2024-02-23T01:09:32;13.98;;;13.02;;
7255;SDS011;3669;49.200;9.242;2024-02-23T01:11:59;18.42;;;17.30;;
7255;SDS011;3669;49.200;9.242;2024-02-23T01:14:26;3.03;;;2.22;;
7255;SDS011;3669;49.200;9.242;2024-02-23T01:16:53;2.83;;;1.90;;
7255;SDS011;3669;49.200;9.242;2024-02-23T01:19:21;3.80;;;2.15;;
7255;SDS011;3669;49.200;9.242;2024-02-23T01:21:48;2.53;;;2.33;;
7255;SDS011;3669;49.200;9.242;2024-02-23T01:24:21;4.13;;;2.85;;
7255;SDS011;3669;49.200;9.242;2024-02-23T01:26:48;3.72;;;2.83;;
7255;SDS011;3669;49.200;9.242;2024-02-23T01:29:15;3.13;;;2.83;;
7255;SDS011;3669;49.200;9.242;2024-02-23T01:31:42;3.85;;;2.33;;
7255;SDS011;3669;49.200;9.242;2024-02-23T01:34:09;3.30;;;2.42;;
7255;SDS011;3669;49.200;9.242;2024-02-23T01:36:36;3.38;;;2.47;;
7255;SDS011;3669;49.200;9.242;2024-02-23T01:39:04;3.22;;;2.45;;
7255;SDS011;3669;49.200;9.242;2024-02-23T01:41:32;2.58;;;2.38;;
7255;SDS011;3669;49.200;9.242;2024-02-23T01:43:59;3.10;;;2.30;;
7255;SDS011;3669;49.200;9.242;2024-02-23T01:46:26;4.40;;;2.47;;
7255;SDS011;3669;49.200;9.242;2024-02-23T01:48:53;2.83;;;2.20;;
7255;SDS011;3669;49.200;9.242;2024-02-23T01:51:20;2.65;;;2.45;;
7255;SDS011;3669;49.200;9.242;2024-02-23T01:53:48;3.88;;;2.40;;
7255;SDS011;3669;49.200;9.242;2024-02-23T01:56:15;2.97;;;2.20;;
7255;SDS011;3669;49.200;9.242;2024-02-23T01:58:43;2.50;;;2.30;;
7255;SDS011;3669;49.200;9.242;2024-02-23T02:01:11;2.63;;;2.42;;
7255;SDS011;3669;49.200;9.242;2024-02-23T02:03:41;3.15;;;2.28;;
7255;SDS011;3669;49.200;9.242;2024-02-23T02:06:11;2.80;;;2.30;;
7255;SDS011;3669;49.200;9.242;2024-02-23T02:08:38;3.40;;;2.50;;
7255;SDS011;3669;49.200;9.242;2024-02-23T02:11:05;3.20;;;2.58;;
7255;SDS011;3669;49.200;9.242;2024-02-23T02:13:32;3.03;;;2.40;;
7255;SDS011;3669;49.200;9.242;2024-02-23T02:16:00;3.38;;;2.42;;
7255;SDS011;3669;49.200;9.242;2024-02-23T02:18:28;4.13;;;2.30;;
7255;SDS011;3669;49.200;9.242;2024-02-23T02:20:55;3.08;;;2.50;;
7255;SDS011;3669;49.200;9.242;2024-02-23T02:23:23;3.53;;;2.10;;
7255;SDS011;3669;49.200;9.242;2024-02-23T02:25:55;3.67;;;2.53;;
7255;SDS011;3669;49.200;9.242;2024-02-23T02:28:23;4.55;;;2.90;;
7255;SDS011;3669;49.200;9.242;2024-02-23T02:30:51;4.53;;;2.83;;
7255;SDS011;3669;49.200;9.242;2024-02-23T02:33:18;4.28;;;2.72;;
7255;SDS011;3669;49.200;9.242;2024-02-23T02:35:46;2.40;;;2.20;;
7255;SDS011;3669;49.200;9.242;2024-02-23T02:38:13;3.47;;;2.45;;
7255;SDS011;3669;49.200;9.242;2024-02-23T02:40:40;3.67;;;2.55;;
7255;SDS011;3669;49.200;9.242;2024-02-23T02:43:07;3.42;;;2.40;;
7255;SDS011;3669;49.200;9.242;2024-02-23T02:45:34;4.18;;;2.58;;
7255;SDS011;3669;49.200;9.242;2024-02-23T02:48:02;3.25;;;3.00;;
7255;SDS011;3669;49.200;9.242;2024-02-23T02:50:29;3.28;;;2.50;;
7255;SDS011;3669;49.200;9.242;2024-02-23T02:52:56;3.05;;;2.30;;
7255;SDS011;3669;49.200;9.242;2024-02-23T02:55:23;3.78;;;2.30;;
7255;SDS011;3669;49.200;9.242;2024-02-23T02:57:50;2.25;;;1.90;;
7255;SDS011;3669;49.200;9.242;2024-02-23T03:00:17;2.92;;;2.63;;
7255;SDS011;3669;49.200;9.242;2024-02-23T03:02:44;2.35;;;2.17;;
7255;SDS011;3669;49.200;9.242;2024-02-23T03:05:11;3.15;;;2.55;;
7255;SDS011;3669;49.200;9.242;2024-02-23T03:07:38;2.70;;;2.22;;
7255;SDS011;3669;49.200;9.242;2024-02-23T03:10:05;2.45;;;2.25;;
7255;SDS011;3669;49.200;9.242;2024-02-23T03:12:32;4.45;;;2.38;;
7255;SDS011;3669;49.200;9.242;2024-02-23T03:14:59;15.80;;;14.65;;
7255;SDS011;3669;49.200;9.242;2024-02-23T03:17:28;18.60;;;17.55;;
7255;SDS011;3669;49.200;9.242;2024-02-23T03:19:55;27.63;;;26.08;;
7255;SDS011;3669;49.200;9.242;2024-02-23T03:22:23;27.02;;;25.50;;
7255;SDS011;3669;49.200;9.242;2024-02-23T03:24:50;25.88;;;24.45;;
7255;SDS011;3669;49.200;9.242;2024-02-23T03:27:17;14.10;;;13.38;;
7255;SDS011;3669;49.200;9.242;2024-02-23T03:29:44;8.35;;;7.22;;
7255;SDS011;3669;49.200;9.242;2024-02-23T03:32:10;2.95;;;2.10;;
7255;SDS011;3669;49.200;9.242;2024-02-23T03:34:37;3.55;;;2.55;;
7255;SDS011;3669;49.200;9.242;2024-02-23T03:37:04;2.50;;;2.30;;
7255;SDS011;3669;49.200;9.242;2024-02-23T03:39:31;1.95;;;1.85;;
7255;SDS011;3669;49.200;9.242;2024-02-23T03:41:58;4.50;;;2.67;;
7255;SDS011;3669;49.200;9.242;2024-02-23T03:44:26;2.88;;;2.67;;
7255;SDS011;3669;49.200;9.242;2024-02-23T03:46:53;2.08;;;1.90;;
7255;SDS011;3669;49.200;9.242;2024-02-23T03:49:20;2.05;;;1.95;;
7255;SDS011;3669;49.200;9.242;2024-02-23T03:51:47;2.40;;;2.22;;
7255;SDS011;3669;49.200;9.242;2024-02-23T03:54:14;2.42;;;2.20;;
7255;SDS011;3669;49.200;9.242;2024-02-23T03:56:41;2.60;;;2.40;;
7255;SDS011;3669;49.200;9.242;2024-02-23T03:59:08;2.92;;;2.72;;
7255;SDS011;3669;49.200;9.242;2024-02-23T04:01:36;2.70;;;2.35;;
7255;SDS011;3669;49.200;9.242;2024-02-23T04:04:04;2.63;;;2.20;;
7255;SDS011;3669;49.200;9.242;2024-02-23T04:06:31;2.45;;;2.25;;
7255;SDS011;3669;49.200;9.242;2024-02-23T04:09:50;25.92;;;24.48;;
7255;SDS011;3669;49.200;9.242;2024-02-23T04:12:24;29.38;;;27.73;;
7255;SDS011;3669;49.200;9.242;2024-02-23T04:14:51;26.92;;;25.42;;
7255;SDS011;3669;49.200;9.242;2024-02-23T04:17:18;27.58;;;25.92;;
7255;SDS011;3669;49.200;9.242;2024-02-23T04:19:45;32.47;;;30.83;;
7255;SDS011;3669;49.200;9.242;2024-02-23T04:22:11;18.13;;;17.05;;
7255;SDS011;3669;49.200;9.242;2024-02-23T04:24:38;3.90;;;3.20;;
7255;SDS011;3669;49.200;9.242;2024-02-23T04:27:06;3.28;;;2.53;;
7255;SDS011;3669;49.200;9.242;2024-02-23T04:29:33;3.03;;;2.25;;
7255;SDS011;3669;49.200;9.242;2024-02-23T04:32:01;2.60;;;2.10;;
7255;SDS011;3669;49.200;9.242;2024-02-23T04:34:28;2.95;;;2.75;;
7255;SDS011;3669;49.200;9.242;2024-02-23T04:36:55;2.75;;;2.33;;
7255;SDS011;3669;49.200;9.242;2024-02-23T04:39:23;3.05;;;2.00;;
7255;SDS011;3669;49.200;9.242;2024-02-23T04:41:50;3.35;;;2.30;;
7255;SDS011;3669;49.200;9.242;2024-02-23T04:44:17;2.28;;;2.08;;
7255;SDS011;3669;49.200;9.242;2024-02-23T04:46:44;2.75;;;2.55;;
7255;SDS011;3669;49.200;9.242;2024-02-23T04:49:11;2.20;;;2.00;;
7255;SDS011;3669;49.200;9.242;2024-02-23T04:51:38;2.40;;;2.20;;
7255;SDS011;3669;49.200;9.242;2024-02-23T04:54:06;2.60;;;2.50;;
7255;SDS011;3669;49.200;9.242;2024-02-23T04:56:33;2.78;;;2.55;;
7255;SDS011;3669;49.200;9.242;2024-02-23T04:59:00;2.60;;;2.40;;
7255;SDS011;3669;49.200;9.242;2024-02-23T05:01:28;2.55;;;2.35;;
7255;SDS011;3669;49.200;9.242;2024-02-23T05:03:55;2.20;;;2.00;;
7255;SDS011;3669;49.200;9.242;2024-02-23T05:06:22;2.17;;;2.05;;
7255;SDS011;3669;49.200;9.242;2024-02-23T05:08:49;2.63;;;2.38;;
7255;SDS011;3669;49.200;9.242;2024-02-23T05:11:16;3.03;;;2.40;;
7255;SDS011;3669;49.200;9.242;2024-02-23T05:13:43;2.58;;;2.10;;
7255;SDS011;3669;49.200;9.242;2024-02-23T05:16:10;3.60;;;2.35;;
7255;SDS011;3669;49.200;9.242;2024-02-23T05:18:38;3.38;;;2.30;;
7255;SDS011;3669;49.200;9.242;2024-02-23T05:21:06;3.85;;;2.35;;
7255;SDS011;3669;49.200;9.242;2024-02-23T05:23:33;2.67;;;2.47;;
7255;SDS011;3669;49.200;9.242;2024-02-23T05:26:01;2.75;;;2.38;;
7255;SDS011;3669;49.200;9.242;2024-02-23T05:28:29;2.45;;;2.25;;
7255;SDS011;3669;49.200;9.242;2024-02-23T05:30:56;3.70;;;2.55;;
7255;SDS011;3669;49.200;9.242;2024-02-23T05:33:23;3.97;;;2.60;;
7255;SDS011;3669;49.200;9.242;2024-02-23T05:35:50;3.25;;;2.50;;
7255;SDS011;3669;49.200;9.242;2024-02-23T05:38:18;3.88;;;2.25;;
7255;SDS011;3669;49.200;9.242;2024-02-23T05:40:45;3.20;;;2.88;;
7255;SDS011;3669;49.200;9.242;2024-02-23T05:43:14;2.42;;;2.00;;
7255;SDS011;3669;49.200;9.242;2024-02-23T05:45:41;2.40;;;2.25;;
7255;SDS011;3669;49.200;9.242;2024-02-23T05:48:09;3.05;;;2.45;;
7255;SDS011;3669;49.200;9.242;2024-02-23T05:50:37;3.15;;;2.50;;
7255;SDS011;3669;49.200;9.242;2024-02-23T05:53:05;2.85;;;2.63;;
7255;SDS011;3669;49.200;9.242;2024-02-23T05:55:32;2.70;;;2.50;;
7255;SDS011;3669;49.200;9.242;2024-02-23T05:57:59;2.80;;;2.30;;
7255;SDS011;3669;49.200;9.242;2024-02-23T06:00:26;3.30;;;3.00;;
7255;SDS011;3669;49.200;9.242;2024-02-23T06:02:53;3.78;;;2.70;;
7255;SDS011;3669;49.200;9.242;2024-02-23T06:05:20;4.47;;;2.60;;
7255;SDS011;3669;49.200;9.242;2024-02-23T06:07:47;3.08;;;2.60;;
7255;SDS011;3669;49.200;9.242;2024-02-23T06:10:14;2.17;;;2.00;;
7255;SDS011;3669;49.200;9.242;2024-02-23T06:12:41;2.53;;;2.33;;
7255;SDS011;3669;49.200;9.242;2024-02-23T06:15:08;2.72;;;2.53;;
7255;SDS011;3669;49.200;9.242;2024-02-23T06:17:36;2.90;;;2.70;;
7255;SDS011;3669;49.200;9.242;2024-02-23T06:20:06;2.70;;;2.50;;
7255;SDS011;3669;49.200;9.242;2024-02-23T06:22:33;2.75;;;2.55;;
7255;SDS011;3669;49.200;9.242;2024-02-23T06:25:02;3.97;;;3.78;;
7255;SDS011;3669;49.200;9.242;2024-02-23T06:27:29;11.02;;;10.32;;
7255;SDS011;3669;49.200;9.242;2024-02-23T06:29:56;18.98;;;18.05;;
7255;SDS011;3669;49.200;9.242;2024-02-23T06:32:22;27.95;;;26.58;;
7255;SDS011;3669;49.200;9.242;2024-02-23T06:34:49;26.75;;;25.33;;
7255;SDS011;3669;49.200;9.242;2024-02-23T06:37:16;31.55;;;30.02;;
7255;SDS011;3669;49.200;9.242;2024-02-23T06:39:43;21.33;;;20.23;;
7255;SDS011;3669;49.200;9.242;2024-02-23T06:42:15;23.45;;;22.35;;
7255;SDS011;3669;49.200;9.242;2024-02-23T06:44:42;21.63;;;20.63;;
7255;SDS011;3669;49.200;9.242;2024-02-23T06:47:10;13.95;;;13.30;;
7255;SDS011;3669;49.200;9.242;2024-02-23T06:49:40;8.23;;;7.68;;
7255;SDS011;3669;49.200;9.242;2024-02-23T06:52:11;28.10;;;26.70;;
7255;SDS011;3669;49.200;9.242;2024-02-23T06:54:38;6.88;;;6.50;;
7255;SDS011;3669;49.200;9.242;2024-02-23T06:57:04;2.75;;;2.55;;
7255;SDS011;3669;49.200;9.242;2024-02-23T06:59:31;2.65;;;2.45;;
7255;SDS011;3669;49.200;9.242;2024-02-23T07:01:58;4.88;;;2.83;;
7255;SDS011;3669;49.200;9.242;2024-02-23T07:04:25;2.70;;;2.50;;
7255;SDS011;3669;49.200;9.242;2024-02-23T07:06:54;3.25;;;3.05;;
7255;SDS011;3669;49.200;9.242;2024-02-23T07:09:22;2.90;;;2.58;;
7255;SDS011;3669;49.200;9.242;2024-02-23T07:11:49;2.95;;;2.75;;
7255;SDS011;3669;49.200;9.242;2024-02-23T07:14:16;2.80;;;2.58;;
7255;SDS011;3669;49.200;9.242;2024-02-23T07:16:43;3.70;;;2.75;;
7255;SDS011;3669;49.200;9.242;2024-02-23T07:19:11;3.05;;;2.85;;
7255;SDS011;3669;49.200;9.242;2024-02-23T07:21:38;3.38;;;3.08;;
7255;SDS011;3669;49.200;9.242;2024-02-23T07:24:05;5.07;;;2.67;;
7255;SDS011;3669;49.200;9.242;2024-02-23T07:26:32;3.40;;;3.10;;
7255;SDS011;3669;49.200;9.242;2024-02-23T07:28:59;3.70;;;3.13;;
7255;SDS011;3669;49.200;9.242;2024-02-23T07:31:26;3.00;;;2.70;;
7255;SDS011;3669;49.200;9.242;2024-02-23T07:33:53;3.67;;;3.05;;
7255;SDS011;3669;49.200;9.242;2024-02-23T07:36:21;4.40;;;3.30;;
7255;SDS011;3669;49.200;9.242;2024-02-23T07:38:48;2.75;;;2.50;;
7255;SDS011;3669;49.200;9.242;2024-02-23T07:41:15;4.25;;;2.70;;
7255;SDS011;3669;49.200;9.242;2024-02-23T07:43:46;3.17;;;2.88;;
7255;SDS011;3669;49.200;9.242;2024-02-23T07:46:13;3.00;;;2.70;;
7255;SDS011;3669;49.200;9.242;2024-02-23T07:48:42;3.53;;;3.20;;
7255;SDS011;3669;49.200;9.242;2024-02-23T07:51:09;3.53;;;3.15;;
7255;SDS011;3669;49.200;9.242;2024-02-23T07:53:36;4.15;;;3.25;;
7255;SDS011;3669;49.200;9.242;2024-02-23T07:56:03;3.08;;;2.35;;
7255;SDS011;3669;49.200;9.242;2024-02-23T07:58:30;3.33;;;2.63;;
7255;SDS011;3669;49.200;9.242;2024-02-23T08:00:58;3.95;;;3.00;;
7255;SDS011;3669;49.200;9.242;2024-02-23T08:03:25;3.08;;;2.78;;
7255;SDS011;3669;49.200;9.242;2024-02-23T08:05:52;3.17;;;2.85;;
7255;SDS011;3669;49.200;9.242;2024-02-23T08:08:19;2.78;;;2.58;;
7255;SDS011;3669;49.200;9.242;2024-02-23T08:10:48;2.90;;;2.70;;
7255;SDS011;3669;49.200;9.242;2024-02-23T08:13:15;2.47;;;2.35;;
7255;SDS011;3669;49.200;9.242;2024-02-23T08:15:43;2.47;;;2.28;;
7255;SDS011;3669;49.200;9.242;2024-02-23T08:18:10;3.00;;;2.80;;
7255;SDS011;3669;49.200;9.242;2024-02-23T08:20:37;3.15;;;2.85;;
7255;SDS011;3669;49.200;9.242;2024-02-23T08:23:04;2.78;;;2.58;;
7255;SDS011;3669;49.200;9.242;2024-02-23T08:25:31;3.47;;;3.13;;
7255;SDS011;3669;49.200;9.242;2024-02-23T08:27:58;3.50;;;2.85;;
7255;SDS011;3669;49.200;9.242;2024-02-23T08:30:26;3.92;;;2.95;;
7255;SDS011;3669;49.200;9.242;2024-02-23T08:32:53;2.97;;;2.78;;
7255;SDS011;3669;49.200;9.242;2024-02-23T08:35:20;2.80;;;2.60;;
7255;SDS011;3669;49.200;9.242;2024-02-23T08:37:47;3.35;;;2.90;;
7255;SDS011;3669;49.200;9.242;2024-02-23T08:40:14;3.47;;;2.50;;
7255;SDS011;3669;49.200;9.242;2024-02-23T08:42:41;3.38;;;2.90;;
7255;SDS011;3669;49.200;9.242;2024-02-23T08:45:08;2.72;;;2.45;;
7255;SDS011;3669;49.200;9.242;2024-02-23T08:47:39;3.45;;;2.70;;
7255;SDS011;3669;49.200;9.242;2024-02-23T08:50:06;3.08;;;2.85;;
7255;SDS011;3669;49.200;9.242;2024-02-23T08:52:33;2.85;;;2.47;;
7255;SDS011;3669;49.200;9.242;2024-02-23T08:55:00;6.78;;;6.38;;
7255;SDS011;3669;49.200;9.242;2024-02-23T08:57:27;19.45;;;18.23;;
7255;SDS011;3669;49.200;9.242;2024-02-23T08:59:54;34.28;;;32.33;;
7255;SDS011;3669;49.200;9.242;2024-02-23T09:02:26;28.85;;;27.48;;
7255;SDS011;3669;49.200;9.242;2024-02-23T09:04:53;25.25;;;24.05;;
7255;SDS011;3669;49.200;9.242;2024-02-23T09:07:20;26.58;;;25.15;;
7255;SDS011;3669;49.200;9.242;2024-02-23T09:09:47;26.33;;;25.05;;
7255;SDS011;3669;49.200;9.242;2024-02-23T09:12:18;33.45;;;31.90;;
7255;SDS011;3669;49.200;9.242;2024-02-23T09:14:45;22.33;;;21.13;;
7255;SDS011;3669;49.200;9.242;2024-02-23T09:17:11;5.95;;;5.50;;
7255;SDS011;3669;49.200;9.242;2024-02-23T09:19:38;3.28;;;3.00;;
7255;SDS011;3669;49.200;9.242;2024-02-23T09:22:05;3.90;;;2.75;;
7255;SDS011;3669;49.200;9.242;2024-02-23T09:24:33;2.80;;;2.60;;
7255;SDS011;3669;49.200;9.242;2024-02-23T09:27:00;2.97;;;2.55;;
7255;SDS011;3669;49.200;9.242;2024-02-23T09:29:28;2.65;;;2.50;;
7255;SDS011;3669;49.200;9.242;2024-02-23T09:31:55;4.47;;;2.80;;
7255;SDS011;3669;49.200;9.242;2024-02-23T09:34:22;2.70;;;2.50;;
7255;SDS011;3669;49.200;9.242;2024-02-23T09:36:50;2.72;;;2.47;;
7255;SDS011;3669;49.200;9.242;2024-02-23T09:39:17;2.92;;;2.60;;
7255;SDS011;3669;49.200;9.242;2024-02-23T09:41:45;3.00;;;2.70;;
7255;SDS011;3669;49.200;9.242;2024-02-23T09:44:18;2.50;;;2.30;;
7255;SDS011;3669;49.200;9.242;2024-02-23T09:46:47;2.50;;;2.40;;
7255;SDS011;3669;49.200;9.242;2024-02-23T09:49:18;2.70;;;2.50;;
7255;SDS011;3669;49.200;9.242;2024-02-23T09:51:45;2.55;;;2.35;;
7255;SDS011;3669;49.200;9.242;2024-02-23T09:54:12;2.80;;;2.60;;
7255;SDS011;3669;49.200;9.242;2024-02-23T09:56:40;2.75;;;2.53;;
7255;SDS011;3669;49.200;9.242;2024-02-23T09:59:07;3.72;;;3.20;;
7255;SDS011;3669;49.200;9.242;2024-02-23T10:01:34;3.60;;;2.65;;
7255;SDS011;3669;49.200;9.242;2024-02-23T10:04:02;2.80;;;2.60;;
7255;SDS011;3669;49.200;9.242;2024-02-23T10:06:30;2.70;;;2.50;;
7255;SDS011;3669;49.200;9.242;2024-02-23T10:08:57;2.55;;;2.35;;
7255;SDS011;3669;49.200;9.242;2024-02-23T10:11:24;2.60;;;2.40;;
7255;SDS011;3669;49.200;9.242;2024-02-23T10:13:51;3.88;;;3.03;;
7255;SDS011;3669;49.200;9.242;2024-02-23T10:16:19;2.90;;;2.60;;
7255;SDS011;3669;49.200;9.242;2024-02-23T10:18:50;2.50;;;2.40;;
7255;SDS011;3669;49.200;9.242;2024-02-23T10:21:17;2.30;;;2.20;;
7255;SDS011;3669;49.200;9.242;2024-02-23T10:23:44;2.50;;;2.30;;
7255;SDS011;3669;49.200;9.242;2024-02-23T10:26:11;3.25;;;3.05;;
7255;SDS011;3669;49.200;9.242;2024-02-23T10:28:39;3.88;;;2.75;;
7255;SDS011;3669;49.200;9.242;2024-02-23T10:31:06;2.58;;;2.38;;
7255;SDS011;3669;49.200;9.242;2024-02-23T10:33:34;3.30;;;3.08;;
7255;SDS011;3669;49.200;9.242;2024-02-23T10:36:01;3.20;;;2.90;;
7255;SDS011;3669;49.200;9.242;2024-02-23T10:38:32;3.10;;;2.90;;
7255;SDS011;3669;49.200;9.242;2024-02-23T10:40:59;3.20;;;2.90;;
7255;SDS011;3669;49.200;9.242;2024-02-23T10:43:40;2.70;;;2.50;;
7255;SDS011;3669;49.200;9.242;2024-02-23T10:46:17;3.50;;;3.17;;
7255;SDS011;3669;49.200;9.242;2024-02-23T10:48:45;3.00;;;2.80;;
7255;SDS011;3669;49.200;9.242;2024-02-23T10:51:15;2.72;;;2.40;;
7255;SDS011;3669;49.200;9.242;2024-02-23T10:53:43;2.42;;;2.22;;
7255;SDS011;3669;49.200;9.242;2024-02-23T10:56:10;2.50;;;2.30;;
7255;SDS011;3669;49.200;9.242;2024-02-23T10:58:38;4.40;;;2.55;;
7255;SDS011;3669;49.200;9.242;2024-02-23T11:01:06;2.65;;;2.45;;
7255;SDS011;3669;49.200;9.242;2024-02-23T11:03:35;3.95;;;2.30;;
7255;SDS011;3669;49.200;9.242;2024-02-23T11:06:05;2.75;;;2.45;;
7255;SDS011;3669;49.200;9.242;2024-02-23T11:08:33;3.20;;;3.00;;
7255;SDS011;3669;49.200;9.242;2024-02-23T11:11:08;2.53;;;2.33;;
7255;SDS011;3669;49.200;9.242;2024-02-23T11:13:36;3.42;;;2.45;;
7255;SDS011;3669;49.200;9.242;2024-02-23T11:16:07;3.38;;;2.50;;
7255;SDS011;3669;49.200;9.242;2024-02-23T11:18:35;27.17;;;25.80;;
7255;SDS011;3669;49.200;9.242;2024-02-23T11:21:03;22.90;;;21.73;;
7255;SDS011;3669;49.200;9.242;2024-02-23T11:24:34;14.68;;;13.88;;
7255;SDS011;3669;49.200;9.242;2024-02-23T11:26:30;18.30;;;17.17;;
7255;SDS011;3669;49.200;9.242;2024-02-23T11:28:59;38.13;;;36.28;;
7255;SDS011;3669;49.200;9.242;2024-02-23T11:31:28;33.13;;;31.40;;
7255;SDS011;3669;49.200;9.242;2024-02-23T11:33:56;17.05;;;16.13;;
7255;SDS011;3669;49.200;9.242;2024-02-23T11:36:28;5.22;;;3.83;;
7255;SDS011;3669;49.200;9.242;2024-02-23T11:38:59;2.80;;;2.50;;
7255;SDS011;3669;49.200;9.242;2024-02-23T11:41:27;3.42;;;2.22;;
7255;SDS011;3669;49.200;9.242;2024-02-23T11:43:54;5.93;;;3.30;;
7255;SDS011;3669;49.200;9.242;2024-02-23T11:46:22;2.75;;;2.50;;
7255;SDS011;3669;49.200;9.242;2024-02-23T11:48:49;3.97;;;2.72;;
7255;SDS011;3669;49.200;9.242;2024-02-23T11:51:20;5.60;;;2.88;;
7255;SDS011;3669;49.200;9.242;2024-02-23T11:53:49;3.20;;;2.45;;
7255;SDS011;3669;49.200;9.242;2024-02-23T11:56:16;3.80;;;2.40;;
7255;SDS011;3669;49.200;9.242;2024-02-23T11:58:44;4.15;;;2.80;;
7255;SDS011;3669;49.200;9.242;2024-02-23T12:01:11;3.08;;;2.88;;
7255;SDS011;3669;49.200;9.242;2024-02-23T12:03:38;3.15;;;2.72;;
7255;SDS011;3669;49.200;9.242;2024-02-23T12:06:06;5.07;;;2.92;;
7255;SDS011;3669;49.200;9.242;2024-02-23T12:08:35;2.97;;;2.55;;
7255;SDS011;3669;49.200;9.242;2024-02-23T12:11:07;2.63;;;2.45;;
7255;SDS011;3669;49.200;9.242;2024-02-23T12:13:35;4.63;;;2.92;;
7255;SDS011;3669;49.200;9.242;2024-02-23T12:16:03;3.92;;;2.63;;
7255;SDS011;3669;49.200;9.242;2024-02-23T12:18:33;2.63;;;2.42;;
7255;SDS011;3669;49.200;9.242;2024-02-23T12:21:07;3.83;;;2.80;;
7255;SDS011;3669;49.200;9.242;2024-02-23T12:23:39;3.50;;;2.63;;
7255;SDS011;3669;49.200;9.242;2024-02-23T12:26:06;2.80;;;2.60;;
7255;SDS011;3669;49.200;9.242;2024-02-23T12:28:33;3.20;;;2.80;;
7255;SDS011;3669;49.200;9.242;2024-02-23T12:31:03;3.47;;;2.50;;
7255;SDS011;3669;49.200;9.242;2024-02-23T12:33:35;2.47;;;2.28;;
7255;SDS011;3669;49.200;9.242;2024-02-23T12:36:03;4.63;;;2.63;;
7255;SDS011;3669;49.200;9.242;2024-02-23T12:38:31;3.38;;;2.45;;
7255;SDS011;3669;49.200;9.242;2024-02-23T12:40:58;3.63;;;2.67;;
7255;SDS011;3669;49.200;9.242;2024-02-23T12:43:26;4.13;;;2.88;;
7255;SDS011;3669;49.200;9.242;2024-02-23T12:45:53;3.03;;;2.83;;
7255;SDS011;3669;49.200;9.242;2024-02-23T12:48:20;2.60;;;2.13;;
7255;SDS011;3669;49.200;9.242;2024-02-23T12:50:48;3.40;;;2.33;;
7255;SDS011;3669;49.200;9.242;2024-02-23T12:53:31;2.78;;;2.42;;
7255;SDS011;3669;49.200;9.242;2024-02-23T12:56:20;2.45;;;2.22;;
7255;SDS011;3669;49.200;9.242;2024-02-23T12:58:46;2.30;;;2.10;;
7255;SDS011;3669;49.200;9.242;2024-02-23T13:01:13;3.33;;;2.20;;
7255;SDS011;3669;49.200;9.242;2024-02-23T13:03:41;4.35;;;2.38;;
7255;SDS011;3669;49.200;9.242;2024-02-23T13:06:08;2.53;;;2.33;;
7255;SDS011;3669;49.200;9.242;2024-02-23T13:08:35;2.70;;;2.50;;
7255;SDS011;3669;49.200;9.242;2024-02-23T13:11:04;2.83;;;2.35;;
7255;SDS011;3669;49.200;9.242;2024-02-23T13:13:31;2.90;;;2.20;;
7255;SDS011;3669;49.200;9.242;2024-02-23T13:15:58;3.95;;;2.40;;
7255;SDS011;3669;49.200;9.242;2024-02-23T13:18:26;4.30;;;2.63;;
7255;SDS011;3669;49.200;9.242;2024-02-23T13:20:53;2.40;;;2.05;;
7255;SDS011;3669;49.200;9.242;2024-02-23T13:23:20;3.95;;;2.10;;
7255;SDS011;3669;49.200;9.242;2024-02-23T13:25:47;2.40;;;2.13;;
7255;SDS011;3669;49.200;9.242;2024-02-23T13:28:14;2.60;;;2.40;;
7255;SDS011;3669;49.200;9.242;2024-02-23T13:30:41;2.90;;;2.67;;
7255;SDS011;3669;49.200;9.242;2024-02-23T13:33:10;3.30;;;2.80;;
7255;SDS011;3669;49.200;9.242;2024-02-23T13:35:38;3.05;;;2.35;;
7255;SDS011;3669;49.200;9.242;2024-02-23T13:38:05;3.28;;;2.45;;
7255;SDS011;3669;49.200;9.242;2024-02-23T13:40:32;3.80;;;2.30;;
7255;SDS011;3669;49.200;9.242;2024-02-23T13:42:59;2.58;;;2.33;;
7255;SDS011;3669;49.200;9.242;2024-02-23T13:45:27;4.28;;;2.30;;
7255;SDS011;3669;49.200;9.242;2024-02-23T13:47:57;3.65;;;2.35;;
7255;SDS011;3669;49.200;9.242;2024-02-23T13:50:25;3.20;;;2.72;;
7255;SDS011;3669;49.200;9.242;2024-02-23T13:52:53;3.22;;;2.58;;
7255;SDS011;3669;49.200;9.242;2024-02-23T13:55:20;2.60;;;2.40;;
7255;SDS011;3669;49.200;9.242;2024-02-23T13:57:47;4.35;;;2.38;;
7255;SDS011;3669;49.200;9.242;2024-02-23T14:00:15;2.95;;;2.47;;
7255;SDS011;3669;49.200;9.242;2024-02-23T14:02:42;2.67;;;2.30;;
7255;SDS011;3669;49.200;9.242;2024-02-23T14:05:10;2.95;;;2.55;;
7255;SDS011;3669;49.200;9.242;2024-02-23T14:07:37;12.90;;;12.18;;
7255;SDS011;3669;49.200;9.242;2024-02-23T14:10:04;2.65;;;2.38;;
7255;SDS011;3669;49.200;9.242;2024-02-23T14:12:32;2.58;;;2.13;;
7255;SDS011;3669;49.200;9.242;2024-02-23T14:14:59;2.92;;;2.40;;
7255;SDS011;3669;49.200;9.242;2024-02-23T14:17:25;2.53;;;2.33;;
7255;SDS011;3669;49.200;9.242;2024-02-23T14:19:52;2.78;;;2.45;;
7255;SDS011;3669;49.200;9.242;2024-02-23T14:22:19;3.05;;;2.13;;
7255;SDS011;3669;49.200;9.242;2024-02-23T14:24:47;4.57;;;3.13;;
7255;SDS011;3669;49.200;9.242;2024-02-23T14:27:14;10.30;;;9.68;;
7255;SDS011;3669;49.200;9.242;2024-02-23T14:29:40;21.55;;;20.40;;
7255;SDS011;3669;49.200;9.242;2024-02-23T14:32:07;27.23;;;25.58;;
7255;SDS011;3669;49.200;9.242;2024-02-23T14:34:34;33.97;;;32.22;;
7255;SDS011;3669;49.200;9.242;2024-02-23T14:37:01;24.70;;;23.15;;
7255;SDS011;3669;49.200;9.242;2024-02-23T14:39:28;17.88;;;16.88;;
7255;SDS011;3669;49.200;9.242;2024-02-23T14:41:55;8.73;;;8.23;;
7255;SDS011;3669;49.200;9.242;2024-02-23T14:44:22;3.33;;;2.90;;
7255;SDS011;3669;49.200;9.242;2024-02-23T14:46:49;5.35;;;2.88;;
7255;SDS011;3669;49.200;9.242;2024-02-23T14:49:16;3.30;;;2.42;;
7255;SDS011;3669;49.200;9.242;2024-02-23T14:51:43;2.85;;;2.53;;
7255;SDS011;3669;49.200;9.242;2024-02-23T14:54:12;3.78;;;2.78;;
7255;SDS011;3669;49.200;9.242;2024-02-23T14:56:39;3.10;;;2.40;;
7255;SDS011;3669;49.200;9.242;2024-02-23T14:59:07;3.30;;;3.00;;
7255;SDS011;3669;49.200;9.242;2024-02-23T15:01:38;2.83;;;2.63;;
7255;SDS011;3669;49.200;9.242;2024-02-23T15:04:08;2.80;;;2.60;;
7255;SDS011;3669;49.200;9.242;2024-02-23T15:06:35;3.03;;;2.80;;
7255;SDS011;3669;49.200;9.242;2024-02-23T15:09:03;3.63;;;2.35;;
7255;SDS011;3669;49.200;9.242;2024-02-23T15:11:31;3.80;;;2.78;;
7255;SDS011;3669;49.200;9.242;2024-02-23T15:13:58;4.32;;;2.50;;
7255;SDS011;3669;49.200;9.242;2024-02-23T15:16:29;3.28;;;2.97;;
7255;SDS011;3669;49.200;9.242;2024-02-23T15:18:57;2.60;;;2.40;;